createdAt,value
2019-01-31T00:01:06.928Z,87.26
2019-01-31T00:04:21.818Z,87.27
2019-01-31T00:07:46.129Z,87.25
2019-01-31T00:10:40.959Z,87.24
2019-01-31T00:14:11.830Z,87.28
2019-01-31T00:17:16.621Z,87.36
2019-01-31T00:20:12.292Z,87.30
2019-01-31T00:23:25.363Z,87.35
2019-01-31T00:26:43.543Z,87.39
2019-01-31T00:30:05.469Z,87.30
2019-01-31T00:33:12.167Z,87.29
2019-01-31T00:36:15.159Z,87.35
2019-01-31T00:39:32.999Z,87.31
2019-01-31T00:42:07.404Z,87.26
2019-01-31T00:45:09.006Z,87.36
2019-01-31T00:48:17.976Z,87.32
2019-01-31T00:50:54.056Z,87.25
2019-01-31T00:53:43.678Z,87.25
2019-01-31T00:56:46.031Z,87.19
2019-01-31T00:59:55.248Z,87.32
2019-01-31T01:03:00.849Z,87.30
2019-01-31T01:05:58.227Z,87.42
2019-01-31T01:09:25.122Z,87.41
2019-01-31T01:12:05.462Z,87.28
2019-01-31T01:15:02.974Z,87.24
2019-01-31T01:17:51.786Z,87.08
2019-01-31T01:20:51.923Z,87.30
2019-01-31T01:24:10.117Z,87.30
2019-01-31T01:26:48.098Z,87.25
2019-01-31T01:29:56.159Z,87.29
2019-01-31T01:33:24.635Z,87.27
2019-01-31T01:36:15.953Z,87.29
2019-01-31T01:39:19.807Z,87.36
2019-01-31T01:42:24.178Z,87.21
2019-01-31T01:45:06.023Z,87.18
2019-01-31T01:47:33.434Z,87.15
2019-01-31T01:50:11.860Z,87.24
2019-01-31T01:53:39.802Z,87.28
2019-01-31T01:56:49.824Z,87.42
2019-01-31T01:59:16.920Z,87.35
2019-01-31T02:02:16.997Z,87.52
2019-01-31T02:05:05.599Z,87.54
2019-01-31T02:08:00.393Z,87.44
2019-01-31T02:11:01.868Z,87.29
2019-01-31T02:14:16.892Z,87.24
2019-01-31T02:17:32.139Z,87.34
2019-01-31T02:20:28.932Z,87.22
2019-01-31T02:23:29.122Z,87.10
2019-01-31T02:26:17.871Z,87.18
2019-01-31T02:29:28.217Z,87.13
2019-01-31T02:32:12.319Z,87.10
2019-01-31T02:35:14.069Z,87.02
2019-01-31T02:37:47.942Z,87.07
2019-01-31T02:40:47.073Z,87.14
2019-01-31T02:43:25.493Z,87.16
2019-01-31T02:46:45.709Z,87.07
2019-01-31T02:49:21.580Z,87.00
2019-01-31T02:52:26.799Z,87.18
2019-01-31T02:55:00.818Z,87.08
2019-01-31T02:58:24.894Z,87.21
2019-01-31T03:01:43.253Z,87.29
2019-01-31T03:04:39.446Z,87.33
2019-01-31T03:07:21.108Z,87.20
2019-01-31T03:10:25.375Z,87.35
2019-01-31T03:13:35.985Z,87.30
2019-01-31T03:16:47.272Z,87.24
2019-01-31T03:19:27.611Z,87.35
2019-01-31T03:22:41.584Z,87.22
2019-01-31T03:25:49.294Z,87.29
2019-01-31T03:28:54.267Z,87.30
2019-01-31T03:32:06.695Z,87.24
2019-01-31T03:35:19.503Z,87.40
2019-01-31T03:38:31.420Z,87.44
2019-01-31T03:42:05.788Z,87.36
2019-01-31T03:44:42.070Z,87.24
2019-01-31T03:47:52.643Z,87.17
2019-01-31T03:50:14.107Z,87.17
2019-01-31T03:53:18.372Z,87.16
2019-01-31T03:55:57.222Z,86.99
2019-01-31T03:58:51.597Z,87.06
2019-01-31T04:02:34.949Z,87.00
2019-01-31T04:05:43.377Z,87.03
2019-01-31T04:07:50.385Z,87.13
2019-01-31T04:09:57.724Z,87.09
2019-01-31T04:12:05.231Z,87.02
2019-01-31T04:14:12.596Z,87.11
2019-01-31T04:16:20.069Z,87.14
2019-01-31T04:18:26.995Z,87.12
2019-01-31T04:20:34.177Z,87.00
2019-01-31T04:22:41.259Z,86.98
2019-01-31T04:24:48.436Z,86.95
2019-01-31T04:26:55.392Z,86.98
2019-01-31T04:29:02.418Z,86.87
2019-01-31T04:31:09.511Z,86.79
2019-01-31T04:33:17.525Z,86.90
2019-01-31T04:35:24.566Z,86.79
2019-01-31T04:37:31.618Z,86.93
2019-01-31T04:39:39.207Z,86.77
2019-01-31T04:41:46.291Z,86.93
2019-01-31T04:43:53.311Z,86.86
2019-01-31T04:46:00.328Z,86.86
2019-01-31T04:48:07.446Z,86.73
2019-01-31T04:50:15.699Z,86.81
2019-01-31T04:52:22.708Z,86.67
2019-01-31T04:54:29.632Z,86.68
2019-01-31T04:56:36.650Z,86.67
2019-01-31T04:58:43.670Z,86.85
2019-01-31T05:00:51.968Z,86.87
2019-01-31T05:02:58.976Z,86.86
2019-01-31T05:05:07.102Z,86.70
2019-01-31T05:07:14.200Z,86.73
2019-01-31T05:09:21.219Z,86.64
2019-01-31T05:11:28.259Z,86.52
2019-01-31T05:13:35.371Z,86.43
2019-01-31T05:15:42.427Z,86.45
2019-01-31T05:17:49.444Z,86.26
2019-01-31T05:22:03.580Z,86.36
2019-01-31T05:24:10.796Z,86.31
2019-01-31T05:26:18.153Z,86.30
2019-01-31T05:28:25.506Z,86.47
2019-01-31T05:30:33.126Z,86.56
2019-01-31T05:32:40.526Z,86.61
2019-01-31T05:34:47.496Z,86.56
2019-01-31T05:36:54.505Z,86.47
2019-01-31T05:39:01.673Z,86.38
2019-01-31T05:41:08.730Z,86.35
2019-01-31T05:43:16.033Z,86.36
2019-01-31T05:45:23.240Z,86.14
2019-01-31T05:47:30.314Z,85.95
2019-01-31T05:49:37.357Z,85.76
2019-01-31T05:51:44.779Z,86.01
2019-01-31T05:53:51.779Z,85.90
2019-01-31T05:55:58.916Z,85.90
2019-01-31T05:58:05.990Z,86.15
2019-01-31T06:00:21.761Z,86.37
2019-01-31T06:02:28.994Z,86.31
2019-01-31T06:04:36.045Z,86.34
2019-01-31T06:06:43.176Z,86.29
2019-01-31T06:08:51.151Z,86.26
2019-01-31T06:11:07.207Z,86.24
2019-01-31T06:13:07.081Z,86.27
2019-01-31T06:15:16.037Z,86.26
2019-01-31T06:17:23.095Z,86.25
2019-01-31T06:19:30.158Z,86.24
2019-01-31T06:21:37.130Z,86.23
2019-01-31T06:23:44.186Z,86.28
2019-01-31T06:25:51.240Z,86.44
2019-01-31T06:27:58.357Z,86.29
2019-01-31T06:30:06.266Z,86.29
2019-01-31T06:32:13.333Z,86.32
2019-01-31T06:34:20.370Z,86.29
2019-01-31T06:36:27.531Z,86.32
2019-01-31T06:38:34.530Z,86.27
2019-01-31T06:40:41.817Z,86.31
2019-01-31T06:42:49.249Z,86.33
2019-01-31T06:44:56.345Z,86.27
2019-01-31T06:47:03.503Z,86.38
2019-01-31T06:49:10.727Z,86.28
2019-01-31T06:51:18.838Z,86.35
2019-01-31T06:53:25.937Z,86.28
2019-01-31T06:55:33.269Z,86.08
2019-01-31T06:57:40.328Z,86.15
2019-01-31T06:59:47.572Z,86.20
2019-01-31T07:01:55.067Z,86.24
2019-01-31T07:04:02.133Z,86.08
2019-01-31T07:06:09.263Z,86.19
2019-01-31T07:08:16.412Z,86.17
2019-01-31T07:10:26.487Z,86.38
2019-01-31T07:12:33.588Z,86.43
2019-01-31T07:14:40.781Z,86.36
2019-01-31T07:16:47.826Z,86.18
2019-01-31T07:18:54.997Z,86.18
2019-01-31T07:21:02.071Z,86.24
2019-01-31T07:23:09.074Z,86.27
2019-01-31T07:25:19.748Z,86.28
2019-01-31T07:27:26.853Z,86.35
2019-01-31T07:29:33.878Z,86.49
2019-01-31T07:31:40.814Z,86.37
2019-01-31T07:33:48.040Z,86.32
2019-01-31T07:35:55.149Z,86.26
2019-01-31T07:38:02.216Z,86.34
2019-01-31T07:40:10.331Z,86.37
2019-01-31T07:42:17.535Z,86.48
2019-01-31T07:44:24.664Z,86.45
2019-01-31T07:46:31.744Z,86.57
2019-01-31T07:48:38.977Z,86.58
2019-01-31T07:50:46.205Z,86.69
2019-01-31T07:52:53.353Z,86.68
2019-01-31T07:55:01.997Z,86.60
2019-01-31T07:57:09.566Z,86.68
2019-01-31T07:59:16.786Z,86.74
2019-01-31T08:01:23.867Z,86.62
2019-01-31T08:03:30.996Z,86.63
2019-01-31T08:05:38.162Z,86.59
2019-01-31T08:07:45.225Z,86.58
2019-01-31T08:09:52.389Z,86.70
2019-01-31T08:11:59.519Z,86.62
2019-01-31T08:14:06.731Z,86.72
2019-01-31T08:16:13.781Z,86.73
2019-01-31T08:18:20.931Z,86.61
2019-01-31T08:20:27.984Z,86.72
2019-01-31T08:22:35.054Z,86.62
2019-01-31T08:24:42.233Z,86.74
2019-01-31T08:26:49.263Z,86.71
2019-01-31T08:28:56.360Z,86.75
2019-01-31T08:31:03.555Z,86.66
2019-01-31T08:33:10.587Z,86.51
2019-01-31T08:35:17.590Z,86.65
2019-01-31T08:37:24.763Z,86.68
2019-01-31T08:39:31.843Z,86.70
2019-01-31T08:41:38.926Z,86.65
2019-01-31T08:43:46.733Z,86.58
2019-01-31T08:45:53.869Z,86.54
2019-01-31T08:48:00.972Z,86.43
2019-01-31T08:50:10.786Z,86.46
2019-01-31T08:52:17.840Z,86.51
2019-01-31T08:54:24.932Z,86.55
2019-01-31T08:56:31.968Z,86.59
2019-01-31T08:58:39.012Z,86.54
2019-01-31T09:00:46.043Z,86.53
2019-01-31T09:02:53.083Z,86.46
2019-01-31T09:05:00.317Z,86.44
2019-01-31T09:07:07.392Z,86.53
2019-01-31T09:09:15.910Z,86.58
2019-01-31T09:11:23.881Z,86.40
2019-01-31T09:13:31.773Z,86.41
2019-01-31T09:15:38.866Z,86.46
2019-01-31T09:17:46.067Z,86.43
2019-01-31T09:19:53.091Z,86.61
2019-01-31T09:22:24.449Z,86.66
2019-01-31T09:25:22.068Z,86.58
2019-01-31T09:28:16.431Z,86.63
2019-01-31T09:31:29.753Z,86.59
2019-01-31T09:34:42.222Z,86.72
2019-01-31T09:37:53.315Z,86.59
2019-01-31T09:41:15.543Z,86.68
2019-01-31T09:44:08.090Z,86.64
2019-01-31T09:47:08.544Z,86.52
2019-01-31T09:50:11.690Z,86.38
2019-01-31T09:53:30.875Z,86.27
2019-01-31T09:56:29.281Z,86.23
2019-01-31T09:59:28.573Z,86.11
2019-01-31T10:02:44.472Z,86.01
2019-01-31T10:05:27.706Z,86.21
2019-01-31T10:08:12.223Z,86.11
2019-01-31T10:11:17.466Z,86.07
2019-01-31T10:14:16.774Z,86.11
2019-01-31T10:17:31.434Z,86.19
2019-01-31T10:20:34.026Z,86.25
2019-01-31T10:23:12.762Z,86.23
2019-01-31T10:25:53.847Z,86.36
2019-01-31T10:28:52.855Z,86.50
2019-01-31T10:32:14.705Z,86.50
2019-01-31T10:35:30.619Z,86.46
2019-01-31T10:38:26.531Z,86.56
2019-01-31T10:41:41.700Z,86.53
2019-01-31T10:44:48.887Z,86.52
2019-01-31T10:48:12.261Z,86.75
2019-01-31T10:50:50.357Z,86.56
2019-01-31T10:53:50.329Z,86.72
2019-01-31T10:56:45.847Z,86.75
2019-01-31T10:59:16.210Z,86.90
2019-01-31T11:02:18.267Z,86.73
2019-01-31T11:05:26.196Z,86.63
2019-01-31T11:08:46.326Z,86.66
2019-01-31T11:11:19.779Z,86.63
2019-01-31T11:14:13.347Z,86.57
2019-01-31T11:17:34.549Z,86.61
2019-01-31T11:20:22.498Z,86.31
2019-01-31T11:23:14.706Z,86.34
2019-01-31T11:26:14.182Z,86.36
2019-01-31T11:29:33.977Z,86.44
2019-01-31T11:32:38.432Z,86.48
2019-01-31T11:35:45.082Z,86.58
2019-01-31T11:38:32.946Z,86.43
2019-01-31T11:41:21.625Z,86.34
2019-01-31T11:44:11.423Z,86.53
2019-01-31T11:47:12.784Z,86.45
2019-01-31T11:50:04.170Z,86.36
2019-01-31T11:53:03.598Z,86.25
2019-01-31T11:55:34.602Z,86.24
2019-01-31T11:58:58.442Z,86.26
2019-01-31T12:01:07.494Z,86.34
2019-01-31T12:03:14.585Z,86.29
2019-01-31T12:05:22.163Z,86.38
2019-01-31T12:07:29.199Z,86.30
2019-01-31T12:09:36.359Z,86.43
2019-01-31T12:11:43.514Z,86.22
2019-01-31T12:13:50.669Z,86.35
2019-01-31T12:15:57.688Z,86.33
2019-01-31T12:18:04.891Z,86.27
2019-01-31T12:20:12.515Z,86.33
2019-01-31T12:22:19.594Z,86.35
2019-01-31T12:24:26.701Z,86.43
2019-01-31T12:26:33.799Z,86.40
2019-01-31T12:28:41.458Z,86.49
2019-01-31T12:30:48.555Z,86.52
2019-01-31T12:32:55.564Z,86.39
2019-01-31T12:35:02.753Z,86.49
2019-01-31T12:37:09.870Z,86.46
2019-01-31T12:39:16.970Z,86.44
2019-01-31T12:41:24.085Z,86.50
2019-01-31T12:43:35.262Z,86.40
2019-01-31T12:45:39.985Z,86.49
2019-01-31T12:47:47.141Z,86.50
2019-01-31T12:49:54.298Z,86.60
2019-01-31T12:52:04.082Z,86.60
2019-01-31T12:54:10.267Z,86.68
2019-01-31T12:56:17.433Z,86.66
2019-01-31T12:58:33.358Z,86.65
2019-01-31T13:00:33.273Z,86.62
2019-01-31T13:02:40.497Z,86.60
2019-01-31T13:04:47.648Z,86.63
2019-01-31T13:06:54.879Z,86.54
2019-01-31T13:09:02.039Z,86.50
2019-01-31T13:11:09.172Z,86.60
2019-01-31T13:13:16.384Z,86.64
2019-01-31T13:15:23.453Z,86.58
2019-01-31T13:17:30.543Z,86.43
2019-01-31T13:19:37.830Z,86.52
2019-01-31T13:21:44.983Z,86.55
2019-01-31T13:23:52.215Z,86.71
2019-01-31T13:25:59.334Z,86.55
2019-01-31T13:28:06.437Z,86.55
2019-01-31T13:30:17.218Z,86.61
2019-01-31T13:32:24.963Z,86.59
2019-01-31T13:34:32.185Z,86.57
2019-01-31T13:36:39.281Z,86.60
2019-01-31T13:38:46.368Z,86.59
2019-01-31T13:40:53.489Z,86.55
2019-01-31T13:43:00.728Z,86.61
2019-01-31T13:45:10.000Z,86.64
2019-01-31T13:47:17.593Z,86.58
2019-01-31T13:49:24.790Z,86.64
2019-01-31T13:51:31.956Z,86.72
2019-01-31T13:53:39.327Z,86.80
2019-01-31T13:55:46.620Z,86.65
2019-01-31T13:57:54.149Z,86.65
2019-01-31T14:00:01.397Z,86.60
2019-01-31T14:02:09.421Z,86.63
2019-01-31T14:04:16.885Z,86.57
2019-01-31T14:06:23.918Z,86.57
2019-01-31T14:08:31.144Z,86.55
2019-01-31T14:10:38.382Z,86.51
2019-01-31T14:12:45.680Z,86.64
2019-01-31T14:14:52.887Z,86.65
2019-01-31T14:17:00.112Z,86.64
2019-01-31T14:19:07.455Z,86.51
2019-01-31T14:21:14.906Z,86.59
2019-01-31T14:23:22.233Z,86.61
2019-01-31T14:25:29.633Z,86.62
2019-01-31T14:27:37.006Z,86.63
2019-01-31T14:29:44.261Z,86.59
2019-01-31T14:31:51.513Z,86.73
2019-01-31T14:33:58.631Z,86.77
2019-01-31T14:36:05.879Z,86.75
2019-01-31T14:38:13.307Z,86.71
2019-01-31T14:40:20.455Z,86.67
2019-01-31T14:42:27.603Z,86.65
2019-01-31T14:44:34.839Z,86.65
2019-01-31T14:46:41.889Z,86.67
2019-01-31T14:48:48.957Z,86.61
2019-01-31T14:50:56.080Z,86.71
2019-01-31T14:53:03.756Z,86.62
2019-01-31T14:55:11.327Z,86.58
2019-01-31T14:57:18.492Z,86.61
2019-01-31T14:59:25.679Z,86.66
2019-01-31T15:01:32.921Z,86.54
2019-01-31T15:03:40.482Z,86.49
2019-01-31T15:05:47.762Z,86.39
2019-01-31T15:07:54.879Z,86.61
2019-01-31T15:10:02.172Z,86.58
2019-01-31T15:12:09.333Z,86.63
2019-01-31T15:14:16.417Z,86.57
2019-01-31T15:16:23.532Z,86.62
2019-01-31T15:18:30.824Z,86.65
2019-01-31T15:20:44.303Z,86.61
2019-01-31T15:22:51.440Z,86.59
2019-01-31T15:24:58.704Z,86.67
2019-01-31T15:27:05.817Z,86.70
2019-01-31T15:29:13.083Z,86.74
2019-01-31T15:31:20.411Z,86.70
2019-01-31T15:33:27.861Z,86.69
2019-01-31T15:35:35.148Z,86.70
2019-01-31T15:37:42.300Z,86.64
2019-01-31T15:39:49.518Z,86.76
2019-01-31T15:41:56.680Z,86.82
2019-01-31T15:44:03.881Z,86.78
2019-01-31T15:46:12.840Z,86.74
2019-01-31T15:48:19.933Z,86.72
2019-01-31T15:50:27.032Z,86.76
2019-01-31T15:52:34.126Z,86.71
2019-01-31T15:54:41.292Z,86.64
2019-01-31T15:56:48.540Z,86.71
2019-01-31T15:58:55.691Z,86.64
2019-01-31T16:01:02.969Z,86.63
2019-01-31T16:03:13.046Z,86.74
2019-01-31T16:05:20.128Z,86.71
2019-01-31T16:07:27.231Z,86.75
2019-01-31T16:09:34.339Z,86.75
2019-01-31T16:11:41.251Z,86.76
2019-01-31T16:13:48.820Z,86.85
2019-01-31T16:15:56.058Z,86.81
2019-01-31T16:18:03.168Z,86.75
2019-01-31T16:20:12.235Z,86.85
2019-01-31T16:22:19.345Z,86.84
2019-01-31T16:24:26.512Z,86.84
2019-01-31T16:26:33.596Z,86.86
2019-01-31T16:28:40.755Z,86.88
2019-01-31T16:30:50.732Z,86.82
2019-01-31T16:32:58.183Z,86.79
2019-01-31T16:35:06.039Z,86.69
2019-01-31T16:37:13.265Z,86.83
2019-01-31T16:39:20.328Z,86.86
2019-01-31T16:41:27.815Z,86.76
2019-01-31T16:43:35.322Z,86.77
2019-01-31T16:45:45.895Z,86.92
2019-01-31T16:47:51.599Z,87.01
2019-01-31T16:49:58.695Z,87.00
2019-01-31T16:52:06.487Z,86.88
2019-01-31T16:54:14.314Z,86.88
2019-01-31T16:56:21.812Z,86.92
2019-01-31T16:58:29.137Z,87.00
2019-01-31T17:00:36.347Z,86.98
2019-01-31T17:02:44.833Z,87.00
2019-01-31T17:04:52.176Z,86.94
2019-01-31T17:06:59.801Z,86.96
2019-01-31T17:09:10.201Z,86.96
2019-01-31T17:11:17.698Z,86.98
2019-01-31T17:13:24.959Z,86.95
2019-01-31T17:15:32.280Z,86.95
2019-01-31T17:17:39.780Z,86.91
2019-01-31T17:19:46.903Z,86.96
2019-01-31T17:21:54.175Z,87.01
2019-01-31T17:24:01.763Z,86.94
2019-01-31T17:26:09.289Z,86.93
2019-01-31T17:28:16.780Z,86.99
2019-01-31T17:30:25.620Z,87.12
2019-01-31T17:32:32.779Z,87.12
2019-01-31T17:34:40.781Z,87.08
2019-01-31T17:36:48.617Z,86.97
2019-01-31T17:38:56.169Z,86.93
2019-01-31T17:41:04.253Z,86.99
2019-01-31T17:43:13.422Z,87.01
2019-01-31T17:45:30.021Z,87.13
2019-01-31T17:47:29.833Z,87.15
2019-01-31T17:49:37.109Z,87.18
2019-01-31T17:51:44.305Z,87.27
2019-01-31T17:53:51.670Z,87.18
2019-01-31T17:55:58.932Z,87.20
2019-01-31T17:58:06.659Z,87.10
2019-01-31T18:00:24.427Z,87.04
2019-01-31T18:02:31.943Z,87.06
2019-01-31T18:04:39.315Z,87.14
2019-01-31T18:06:47.223Z,87.17
2019-01-31T18:08:54.634Z,87.17
2019-01-31T18:11:02.067Z,86.99
2019-01-31T18:13:10.422Z,87.15
2019-01-31T18:15:18.662Z,87.17
2019-01-31T18:17:29.821Z,87.22
2019-01-31T18:19:35.805Z,87.15
2019-01-31T18:21:43.414Z,86.97
2019-01-31T18:23:51.096Z,87.20
2019-01-31T18:25:59.362Z,87.24
2019-01-31T18:28:07.365Z,87.26
2019-01-31T18:30:22.049Z,87.30
2019-01-31T18:32:29.928Z,87.30
2019-01-31T18:34:38.849Z,87.23
2019-01-31T18:36:46.830Z,87.07
2019-01-31T18:38:57.534Z,87.16
2019-01-31T18:41:04.226Z,87.05
2019-01-31T18:43:11.560Z,87.06
2019-01-31T18:45:22.478Z,87.10
2019-01-31T18:47:30.712Z,87.07
2019-01-31T18:49:38.672Z,87.13
2019-01-31T18:51:46.359Z,87.01
2019-01-31T18:53:54.366Z,87.06
2019-01-31T18:56:02.433Z,86.99
2019-01-31T18:58:11.581Z,86.90
2019-01-31T19:00:24.408Z,86.80
2019-01-31T19:02:31.647Z,86.77
2019-01-31T19:04:38.729Z,86.73
2019-01-31T19:06:45.951Z,86.77
2019-01-31T19:08:53.053Z,86.86
2019-01-31T19:11:00.405Z,87.08
2019-01-31T19:13:08.373Z,87.25
2019-01-31T19:15:16.844Z,87.24
2019-01-31T19:17:24.506Z,87.26
2019-01-31T19:19:31.819Z,87.32
2019-01-31T19:21:39.005Z,87.34
2019-01-31T19:23:46.261Z,87.37
2019-01-31T19:25:53.472Z,87.25
2019-01-31T19:28:00.558Z,87.26
2019-01-31T19:30:19.098Z,87.29
2019-01-31T19:32:26.328Z,87.33
2019-01-31T19:34:33.601Z,87.36
2019-01-31T19:36:41.069Z,87.37
2019-01-31T19:38:48.354Z,87.35
2019-01-31T19:40:55.758Z,87.34
2019-01-31T19:43:03.043Z,87.32
2019-01-31T19:45:15.872Z,87.26
2019-01-31T19:47:23.349Z,87.30
2019-01-31T19:49:31.656Z,87.30
2019-01-31T19:51:38.808Z,87.33
2019-01-31T19:53:48.391Z,87.36
2019-01-31T19:55:55.101Z,87.42
2019-01-31T19:58:02.291Z,87.43
2019-01-31T20:00:11.580Z,87.42
2019-01-31T20:02:19.118Z,87.45
2019-01-31T20:04:26.359Z,87.43
2019-01-31T20:06:33.997Z,87.38
2019-01-31T20:08:41.699Z,87.39
2019-01-31T20:10:49.322Z,87.39
2019-01-31T20:12:58.431Z,87.36
2019-01-31T20:15:07.315Z,87.42
2019-01-31T20:17:14.928Z,87.51
2019-01-31T20:19:22.903Z,87.48
2019-01-31T20:21:30.762Z,87.51
2019-01-31T20:23:38.414Z,87.47
2019-01-31T20:25:52.741Z,87.52
2019-01-31T20:28:00.442Z,87.31
2019-01-31T20:30:09.456Z,87.21
2019-01-31T20:32:16.605Z,87.20
2019-01-31T20:34:24.279Z,87.13
2019-01-31T20:36:32.153Z,86.76
2019-01-31T20:38:40.321Z,86.73
2019-01-31T20:40:47.692Z,86.70
2019-01-31T20:42:54.800Z,86.71
2019-01-31T20:45:01.975Z,86.64
2019-01-31T20:47:09.081Z,86.66
2019-01-31T20:49:16.256Z,86.60
2019-01-31T20:51:23.459Z,86.54
2019-01-31T20:53:30.737Z,86.56
2019-01-31T20:55:37.873Z,86.52
2019-01-31T20:57:45.110Z,86.56
2019-01-31T20:59:58.086Z,86.46
2019-01-31T21:02:05.400Z,86.33
2019-01-31T21:04:12.607Z,86.19
2019-01-31T21:06:19.851Z,86.34
2019-01-31T21:08:27.223Z,86.48
2019-01-31T21:10:34.530Z,86.43
2019-01-31T21:12:41.759Z,86.48
2019-01-31T21:14:49.099Z,86.46
2019-01-31T21:16:56.324Z,86.43
2019-01-31T21:19:03.400Z,86.26
2019-01-31T21:21:10.495Z,86.31
2019-01-31T21:23:17.809Z,86.11
2019-01-31T21:25:24.995Z,85.94
2019-01-31T21:27:32.241Z,85.85
2019-01-31T21:29:39.537Z,85.87
2019-01-31T21:31:46.644Z,85.90
2019-01-31T21:33:53.966Z,85.92
2019-01-31T21:36:01.092Z,86.03
2019-01-31T21:38:08.784Z,86.15
2019-01-31T21:40:15.938Z,86.26
2019-01-31T21:42:23.065Z,86.36
2019-01-31T21:44:30.332Z,85.98
2019-01-31T21:46:37.530Z,85.82
2019-01-31T21:48:44.810Z,85.65
2019-01-31T21:50:52.011Z,86.00
2019-01-31T21:52:59.147Z,86.00
2019-01-31T21:55:07.107Z,85.09
2019-01-31T21:57:14.205Z,84.61
2019-01-31T21:59:21.459Z,84.48
2019-01-31T22:01:28.903Z,84.81
2019-01-31T22:03:36.238Z,84.19
2019-01-31T22:05:43.658Z,84.04
2019-01-31T22:07:51.246Z,84.37
2019-01-31T22:09:58.995Z,84.75
2019-01-31T22:12:06.323Z,84.92
2019-01-31T22:14:14.042Z,85.02
2019-01-31T22:16:21.961Z,84.45
2019-01-31T22:18:29.363Z,84.54
2019-01-31T22:20:37.576Z,84.55
2019-01-31T22:22:45.641Z,84.48
2019-01-31T22:24:52.721Z,84.17
2019-01-31T22:26:59.922Z,83.88
2019-01-31T22:29:08.361Z,84.03
2019-01-31T22:31:15.785Z,84.22
2019-01-31T22:33:22.890Z,84.14
2019-01-31T22:35:30.102Z,83.72
2019-01-31T22:37:37.407Z,84.17
2019-01-31T22:39:44.515Z,84.06
2019-01-31T22:41:51.666Z,84.04
2019-01-31T22:43:58.955Z,84.29
2019-01-31T22:46:06.121Z,84.51
2019-01-31T22:48:13.458Z,84.43
2019-01-31T22:50:22.225Z,84.46
2019-01-31T22:52:29.300Z,84.17
2019-01-31T22:54:36.534Z,84.51
2019-01-31T22:56:43.603Z,84.21
2019-01-31T22:58:50.734Z,84.13
2019-01-31T23:01:39.351Z,84.11
2019-01-31T23:03:46.538Z,83.75
2019-01-31T23:05:53.682Z,83.73
2019-01-31T23:08:00.894Z,83.71
2019-01-31T23:10:08.571Z,83.68
2019-01-31T23:12:15.695Z,83.82
2019-01-31T23:14:22.930Z,83.86
2019-01-31T23:16:30.408Z,83.72
2019-01-31T23:18:37.600Z,83.99
2019-01-31T23:20:44.828Z,84.10
2019-01-31T23:22:52.031Z,83.81
2019-01-31T23:24:59.084Z,83.98
2019-01-31T23:27:06.226Z,84.03
2019-01-31T23:29:13.298Z,84.02
2019-01-31T23:31:20.503Z,83.87
2019-01-31T23:33:27.578Z,83.84
2019-01-31T23:35:34.799Z,83.89
2019-01-31T23:37:41.951Z,83.87
2019-01-31T23:39:49.136Z,83.91
2019-01-31T23:41:56.264Z,84.02
2019-01-31T23:44:03.393Z,84.24
2019-01-31T23:46:10.466Z,84.57
2019-01-31T23:48:17.696Z,84.63
2019-01-31T23:50:24.745Z,84.53
2019-01-31T23:52:31.821Z,84.35
2019-01-31T23:54:38.967Z,84.64
2019-01-31T23:56:46.072Z,84.33
2019-01-31T23:58:53.158Z,84.25
